• Join FlightAware (Why Join?)
  • Login
  • US Flag 
10:32AM EST


 

Airport Tracker/Info


-or-


 

Live Flight TrackerFlight Track Log ✈ AAL1326 ✈ 15-Apr-2013 ✈ KMCI - KORD

Flight Track Log - Related Links

Times and Time Zones

All times are in EDT time to prevent confusion due to time zone crossing. See the AAL1326 flight status page for this flight to view local times or setup timezone preferences in your user account.

Time Position Orientation Groundspeed Altitude Reporting Facility
EDT Latitude Longitude Course Direction KTS MPH feet Rate Location/Type
04:33PM 39.5897 -94.3491 45° Northeast  Level FlightAware Approximate
04:33PM 39.4500 -94.5880 45° Northeast 295 339 6,700  Level FlightAware
04:33PM 39.4740 -94.5540 48° Northeast 312 359 7,600 2,820 Climbing FlightAware
04:33PM 39.5030 -94.5110 49° Northeast 313 360 9,300 2,640 Climbing FlightAware
04:34PM 39.5430 -94.4550 47° Northeast 347 399 10,700 1,740 Climbing FlightAware
04:35PM 39.5980 -94.3760 48° Northeast 404 465 11,800 2,100 Climbing FlightAware
04:36PM 39.6480 -94.3020 49° Northeast 419 482 13,700 2,760 Climbing FlightAware
04:36PM 39.7050 -94.2290 45° Northeast 436 502 15,500 2,700 Climbing FlightAware
04:37PM 39.7690 -94.1470 45° Northeast 449 517 17,600 2,700 Climbing FlightAware
04:38PM 39.8170 -94.0850 45° Northeast 456 525 19,100 2,640 Climbing FlightAware
04:38PM 39.8990 -93.9780 45° Northeast 467 537 21,400 2,400 Climbing FlightAware
04:39PM 39.9590 -93.8970 46° Northeast 478 550 22,700 1,920 Climbing FlightAware
04:40PM 40.0210 -93.8130 46° Northeast 493 567 24,000 1,920 Climbing FlightAware
04:40PM 40.0710 -93.6980 60° Northeast 507 583 25,500 1,860 Climbing FlightAware
04:41PM 40.0970 -93.5780 74° East 516 594 26,700 1,680 Climbing FlightAware
04:42PM 40.1220 -93.4590 75° East 525 604 27,800 1,500 Climbing FlightAware
04:43PM 40.1540 -93.3140 74° East 535 616 28,900 1,680 Climbing FlightAware
04:43PM 40.1910 -93.1460 74° East 537 618 30,600 1,800 Climbing FlightAware
04:44PM 40.2130 -93.0450 74° East 535 616 31,600 1,680 Climbing FlightAware
04:45PM 40.2480 -92.8810 74° East 535 616 33,000 960 Climbing FlightAware
04:45PM 40.2700 -92.7750 75° East 513 590 33,000 420 Level FlightAware
04:46PM 40.3000 -92.6370 74° East 502 578 33,600 1,200 Climbing FlightAware
04:47PM 40.3260 -92.5120 75° East 498 573 34,800 960 Climbing FlightAware
04:48PM 40.3540 -92.3800 74° East 500 575 35,000 120 Climbing FlightAware
04:48PM 40.3780 -92.2630 75° East 500 575 35,000  Level FlightAware
04:49PM 40.3980 -92.1670 75° East 498 573 35,000  Level FlightAware
04:50PM 40.4240 -92.0400 75° East 497 572 35,000  Level FlightAware
04:50PM 40.4510 -91.9090 75° East 495 570 35,000  Level FlightAware
04:51PM 40.4760 -91.7860 75° East 495 570 35,000  Level FlightAware
04:52PM 40.4990 -91.6730 75° East 495 570 35,000  Level FlightAware
04:53PM 40.5260 -91.5430 75° East 493 567 35,000  Level FlightAware
04:53PM 40.5540 -91.4080 75° East 491 565 35,000  Level FlightAware
04:54PM 40.5870 -91.3070 67° East 490 564 35,000  Level FlightAware
04:55PM 40.6250 -91.1950 66° East 491 565 35,000  Level FlightAware
04:55PM 40.6670 -91.0720 66° East 492 566 35,000  Level FlightAware
04:56PM 40.6990 -90.9790 66° East 492 566 35,000  Level FlightAware
04:57PM 40.7540 -90.8170 66° East 493 567 35,000 -120 Level FlightAware
04:58PM 40.7880 -90.7140 66° East 492 566 34,900 -960 Descending FlightAware
04:58PM 40.8260 -90.6020 66° East 495 570 33,800 -1,620 Descending FlightAware
04:59PM 40.8730 -90.4600 66° East 486 559 32,400 -1,380 Descending FlightAware
05:00PM 40.9100 -90.3490 66° East 483 556 31,700 -1,080 Descending FlightAware
05:00PM 40.9470 -90.2390 66° East 480 552 31,000 -1,140 Descending FlightAware
05:01PM 40.9830 -90.1300 66° East 472 543 30,200 -1,500 Descending FlightAware
05:02PM 41.0200 -90.0180 66° East 464 534 28,900 -2,400 Descending FlightAware
05:03PM 41.0570 -89.9050 66° East 486 559 26,800 -2,280 Descending FlightAware
05:03PM 41.0940 -89.7960 66° East 483 556 25,700 -1,560 Descending FlightAware
05:04PM 41.1350 -89.6880 63° Northeast 474 545 24,600 -1,740 Descending FlightAware
05:05PM 41.1890 -89.5880 54° Northeast 462 532 23,400 -1,800 Descending FlightAware
05:05PM 41.2430 -89.4880 54° Northeast 457 526 22,100 -1,740 Descending FlightAware
05:06PM 41.2940 -89.3950 54° Northeast 451 519 21,000 -1,800 Descending FlightAware
05:07PM 41.3500 -89.2950 53° Northeast 443 510 19,600 -1,980 Descending FlightAware
05:07PM 41.3930 -89.2200 53° Northeast 437 503 18,400 -2,280 Descending FlightAware
05:08PM 41.4470 -89.1250 53° Northeast 426 490 16,600 -2,280 Descending FlightAware
05:09PM 41.4820 -89.0130 67° East 423 487 15,000 -2,040 Descending FlightAware
05:09PM 41.5020 -88.9400 70° East 411 473 14,100 -1,980 Descending FlightAware
05:10PM 41.5270 -88.8480 70° East 397 457 12,700 -1,980 Descending FlightAware
05:11PM 41.5460 -88.7560 75° East 387 445 11,500 -1,140 Descending FlightAware
05:11PM 41.5690 -88.6530 73° East 373 429 11,100 -300 Descending FlightAware
05:12PM 41.5850 -88.5790 74° East 369 425 11,100  Level FlightAware
05:13PM 41.6080 -88.4690 74° East 373 429 11,100  Level FlightAware
05:14PM 41.6270 -88.3820 74° East 371 427 11,100 -180 Level FlightAware
05:14PM 41.6440 -88.3060 73° East 356 410 10,900 -540 Descending FlightAware
05:15PM 41.6670 -88.2650 53° Northeast 343 395 10,600 -1,020 Descending FlightAware
05:15PM 41.7150 -88.2140 38° Northeast 327 376 9,800 -1,320 Descending FlightAware
05:15PM 41.7370 -88.1930 35° Northeast 325 374 9,400 -1,080 Descending FlightAware
05:16PM 41.7650 -88.1640 38° Northeast 324 373 9,100 -1,200 Descending FlightAware
05:16PM 41.8000 -88.1280 37° Northeast 321 369 8,300 -1,320 Descending FlightAware
05:17PM 41.8250 -88.0930 46° Northeast 312 359 7,900 -900 Descending FlightAware
05:17PM 41.8510 -88.0480 52° Northeast 297 342 7,500 -600 Descending FlightAware
05:18PM 41.8750 -88.0010 56° Northeast 275 316 7,300 -480 Descending FlightAware
05:18PM 41.8830 -87.9670 72° East 250 288 7,100 -300 Descending FlightAware
05:18PM 41.8850 -87.9460 83° East 232 267 7,100  Level FlightAware
05:19PM 41.8850 -87.9230 90° East 224 258 7,100  Level FlightAware
05:19PM 41.8850 -87.8780 90° East 221 254 7,100  Level FlightAware
05:20PM 41.8840 -87.8450 92° East 220 253 7,100  Level FlightAware
05:20PM 41.8840 -87.8150 90° East 222 255 7,100  Level FlightAware
05:20PM 41.8840 -87.7850 90° East 214 246 7,100  Level FlightAware
05:21PM 41.8840 -87.7590 90° East 219 252 7,100 -300 Level FlightAware
05:21PM 41.8840 -87.7310 90° East 218 251 6,900 -1,080 Descending FlightAware
05:22PM 41.8840 -87.6880 90° East 220 253 6,200 -1,380 Descending FlightAware
05:22PM 41.8840 -87.6710 90° East 219 252 5,900 -1,080 Descending FlightAware
05:22PM 41.8840 -87.6360 90° East 217 250 5,500 -1,080 Descending FlightAware
05:23PM 41.8840 -87.6090 90° East 218 251 5,100 -600 Descending FlightAware
05:23PM 41.8840 -87.5830 90° East 214 246 5,100  Level FlightAware
05:23PM 41.8840 -87.5480 90° East 211 243 5,100  Level FlightAware
05:24PM 41.8840 -87.5060 90° East 217 250 5,100  Level FlightAware
05:24PM 41.8830 -87.4630 92° East 219 252 5,100  Level FlightAware
05:25PM 41.8830 -87.4520 90° East 216 249 5,100  Level FlightAware
05:25PM 41.8830 -87.4180 90° East 215 247 5,100  Level FlightAware
05:25PM 41.8830 -87.3800 90° East 215 247 5,100  Level FlightAware
05:26PM 41.8830 -87.3560 90° East 216 249 5,100  Level FlightAware
05:26PM 41.8830 -87.3430 90° East 216 249 5,100  Level FlightAware
05:26PM 41.8890 -87.3180 72° East 224 258 5,100  Level FlightAware
05:26PM 41.9020 -87.3090 27° Northeast 219 252 5,100  Level FlightAware
05:27PM 41.9230 -87.3070 North 213 245 5,100  Level FlightAware
05:27PM 41.9380 -87.3150 338° Northwest 194 223 5,100  Level FlightAware
05:27PM 41.9460 -87.3310 304° West 187 215 5,100  Level FlightAware
05:28PM 41.9590 -87.3550 306° West 184 212 5,100  Level FlightAware
05:28PM 41.9630 -87.3670 294° West 175 201 5,100  Level FlightAware
05:28PM 41.9660 -87.3800 287° West 167 192 5,100  Level FlightAware
05:29PM 41.9680 -87.4030 277° West 163 188 5,100  Level FlightAware
05:29PM 41.9690 -87.4400 272° West 166 191 5,100  Level FlightAware
05:30PM 41.9690 -87.4690 270° West 160 184 5,100  Level FlightAware
05:30PM 41.9690 -87.4940 270° West 156 180 5,100  Level FlightAware
05:31PM 41.9690 -87.5370 270° West 157 181 5,100  Level FlightAware
05:31PM 41.9690 -87.5590 270° West 157 181 5,100  Level FlightAware
05:32PM 41.9690 -87.5900 270° West 156 180 5,100 -540 Level FlightAware
05:33PM 41.9690 -87.6470 270° West 156 180 4,300 -960 Descending FlightAware
05:34PM 41.9690 -87.7000 270° West 159 183 3,400 -1,020 Descending FlightAware
05:34PM 41.9690 -87.7260 270° West 158 182 3,000 -900 Descending FlightAware
05:35PM 41.9690 -87.7650 270° West 156 180 2,400 -840 Descending FlightAware
05:35PM 41.9690 -87.7960 270° West 138 159 2,000 -840 Descending FlightAware
05:36PM 41.9690 -87.8210 270° West 133 153 1,600 -720 Descending FlightAware
05:36PM 41.9690 -87.8530 270° West 130 150 1,200 -660 Descending FlightAware
05:37PM 41.9690 -87.8720 270° West 127 146 900 -720 Descending FlightAware